Time;durP1;ratioP1;P1;durP2;ratioP2;P2;SDS_P1;SDS_P2;PMS_P1;PMS_P2;Temp;Humidity;BMP_temperature;BMP_pressure;BME280_temperature;BME280_humidity;BME280_pressure;Samples;Min_cycle;Max_cycle;Signal;HPM_P1;HPM_P2
2021/07/26 00:02:21;;;;;;;22.52;9.30;;;;;;;17.63;91.97;100730.81;5073497;28;20067;-60
2021/07/26 00:04:47;;;;;;;21.23;8.85;;;;;;;17.73;90.31;100733.19;5073967;28;20032;-60
2021/07/26 00:07:12;;;;;;;22.20;8.73;;;;;;;17.78;89.34;100727.75;5075292;28;20024;-60
2021/07/26 00:09:37;;;;;;;21.42;8.65;;;;;;;17.73;88.88;100719.81;5074965;28;20120;-60
2021/07/26 00:12:04;;;;;;;21.17;8.30;;;;;;;17.68;89.94;100720.84;5075337;28;20031;-60
2021/07/26 00:14:31;;;;;;;20.23;8.05;;;;;;;17.71;90.26;100708.31;5074961;28;20032;-61
2021/07/26 00:16:56;;;;;;;21.05;8.50;;;;;;;17.65;91.35;100710.25;5074842;28;20020;-61
2021/07/26 00:19:21;;;;;;;21.60;8.90;;;;;;;17.53;91.67;100703.44;5075091;28;20111;-61
2021/07/26 00:21:47;;;;;;;21.40;8.23;;;;;;;17.47;89.73;100706.28;5075008;28;20479;-61
2021/07/26 00:24:12;;;;;;;21.25;8.23;;;;;;;17.38;90.50;100697.59;5074688;28;20021;-61
2021/07/26 00:26:37;;;;;;;21.23;8.60;;;;;;;17.33;90.97;100698.63;5074937;28;20054;-60
2021/07/26 00:29:02;;;;;;;21.02;8.57;;;;;;;17.33;91.91;100699.53;5074617;28;20038;-61
2021/07/26 00:31:28;;;;;;;28.55;14.40;;;;;;;17.33;91.85;100693.28;5074938;28;20028;-60
2021/07/26 00:34:19;;;;;;;22.40;9.50;;;;;;;17.29;91.51;100697.84;5074778;28;20119;-60
2021/07/26 00:36:54;;;;;;;21.75;9.05;;;;;;;17.23;92.64;100696.19;5074781;28;20035;-61
2021/07/26 00:39:22;;;;;;;21.25;8.80;;;;;;;17.23;93.60;100692.66;5070940;28;20035;-60
2021/07/26 00:41:48;;;;;;;21.75;9.10;;;;;;;17.22;93.56;100691.75;5070668;28;20028;-60
2021/07/26 00:44:16;;;;;;;21.35;9.00;;;;;;;17.11;93.88;100692.97;5074855;28;20029;-60
2021/07/26 00:46:43;;;;;;;23.80;10.60;;;;;;;17.05;98.05;100705.56;5074546;28;20017;-61
2021/07/26 00:49:11;;;;;;;22.73;9.98;;;;;;;17.03;98.79;100693.16;5074162;28;20484;-60
2021/07/26 00:51:39;;;;;;;22.88;9.80;;;;;;;16.95;97.33;100698.69;5074237;28;20029;-60
2021/07/26 00:54:28;;;;;;;22.77;9.80;;;;;;;16.93;96.82;100700.50;5074380;28;20467;-61
2021/07/26 00:56:56;;;;;;;22.70;9.48;;;;;;;16.87;95.09;100693.53;5048833;28;20037;-61
2021/07/26 00:59:22;;;;;;;21.33;9.02;;;;;;;16.79;95.05;100698.16;5050985;28;20037;-61
2021/07/26 01:01:48;;;;;;;21.85;9.15;;;;;;;16.79;97.42;100692.81;5051916;28;20040;-62
2021/07/26 01:04:13;;;;;;;21.83;9.35;;;;;;;16.82;96.48;100689.16;5052192;28;20024;-61
2021/07/26 01:06:39;;;;;;;22.42;9.02;;;;;;;16.77;96.83;100694.63;5051806;28;20040;-61
2021/07/26 01:09:05;;;;;;;22.45;9.27;;;;;;;16.69;96.05;100697.47;5052005;28;20024;-63
2021/07/26 01:11:31;;;;;;;23.00;9.15;;;;;;;16.68;97.14;100690.38;5051686;28;20033;-62
2021/07/26 01:13:56;;;;;;;23.50;10.68;;;;;;;16.67;100.00;100693.97;5051667;28;20033;-63
2021/07/26 01:16:23;;;;;;;22.65;9.32;;;;;;;16.65;100.00;100694.94;5051801;28;20051;-62
2021/07/26 01:18:49;;;;;;;22.70;10.27;;;;;;;16.64;100.00;100702.03;5051636;28;20475;-62
2021/07/26 01:21:17;;;;;;;23.42;9.55;;;;;;;16.61;100.00;100709.25;5051532;28;20156;-61
2021/07/26 01:23:45;;;;;;;22.58;10.07;;;;;;;16.58;100.00;100704.84;5051681;28;20419;-61
2021/07/26 01:26:13;;;;;;;23.88;10.07;;;;;;;16.54;100.00;100708.50;5051342;28;20479;-65
2021/07/26 01:28:51;;;;;;;22.30;9.75;;;;;;;16.55;100.00;100708.47;5069834;28;20036;-64
2021/07/26 01:31:17;;;;;;;23.60;9.70;;;;;;;16.52;100.00;100702.34;5069687;28;20029;-64
2021/07/26 01:33:43;;;;;;;22.02;9.27;;;;;;;16.45;98.92;100706.91;5073875;28;20035;-65
2021/07/26 01:36:10;;;;;;;21.80;9.23;;;;;;;16.41;100.00;100713.25;5073428;28;20494;-65
2021/07/26 01:38:35;;;;;;;21.90;8.90;;;;;;;16.37;99.69;100706.22;5073542;28;20028;-65
2021/07/26 01:41:04;;;;;;;22.90;8.75;;;;;;;16.36;98.79;100709.78;5073325;28;20399;-65
2021/07/26 01:43:35;;;;;;;21.13;8.73;;;;;;;16.36;97.40;100712.47;5073414;28;20028;-66
2021/07/26 01:46:12;;;;;;;21.33;8.82;;;;;;;16.37;96.93;100717.75;5073114;28;20029;-64
2021/07/26 01:48:48;;;;;;;22.77;8.90;;;;;;;16.36;96.58;100717.78;5073094;28;20024;-65
2021/07/26 01:51:31;;;;;;;21.67;9.05;;;;;;;16.33;97.24;100715.19;5073169;28;20031;-64
2021/07/26 01:53:57;;;;;;;21.40;8.68;;;;;;;16.32;96.65;100716.09;5070681;28;20024;-64
2021/07/26 01:56:23;;;;;;;22.15;9.00;;;;;;;16.34;95.72;100717.84;5072697;28;20052;-64
2021/07/26 01:58:49;;;;;;;22.38;8.60;;;;;;;16.30;96.24;100705.47;5073254;28;20108;-64
2021/07/26 02:01:14;;;;;;;21.50;8.40;;;;;;;16.28;95.14;100712.63;5073139;28;20025;-64
2021/07/26 02:03:39;;;;;;;21.35;8.63;;;;;;;16.25;97.83;100718.03;5072836;28;20040;-65
2021/07/26 02:06:05;;;;;;;21.95;8.90;;;;;;;16.24;98.28;100715.38;5072852;28;20410;-65
2021/07/26 02:08:30;;;;;;;20.63;8.20;;;;;;;16.17;97.24;100715.50;5073185;28;20474;-65
2021/07/26 02:10:55;;;;;;;21.50;8.68;;;;;;;16.16;99.19;100720.88;5072476;28;20077;-62
2021/07/26 02:13:20;;;;;;;21.50;8.52;;;;;;;16.17;99.10;100717.31;5072764;28;20065;-61
2021/07/26 02:15:46;;;;;;;21.80;8.77;;;;;;;16.16;100.00;100727.09;5071748;28;20027;-63
2021/07/26 02:18:11;;;;;;;22.17;9.05;;;;;;;16.16;100.00;100718.22;5072609;28;20852;-61
2021/07/26 02:20:37;;;;;;;23.60;9.25;;;;;;;16.15;100.00;100721.78;5072683;28;20025;-61
2021/07/26 02:23:03;;;;;;;22.92;8.90;;;;;;;16.16;100.00;100723.53;5073064;28;20043;-62
2021/07/26 02:25:29;;;;;;;23.27;9.15;;;;;;;16.18;100.00;100719.06;5072867;28;20415;-61
2021/07/26 02:27:54;;;;;;;21.83;8.32;;;;;;;16.19;100.00;100721.72;5073029;28;20066;-64
2021/07/26 02:30:19;;;;;;;20.92;8.50;;;;;;;16.23;100.00;100724.31;5071176;28;20513;-61
2021/07/26 02:32:45;;;;;;;21.83;7.82;;;;;;;16.25;100.00;100720.72;5072554;28;20021;-62
2021/07/26 02:35:11;;;;;;;21.73;7.90;;;;;;;16.29;100.00;100724.16;5072706;28;20115;-62
2021/07/26 02:37:36;;;;;;;22.15;8.45;;;;;;;16.34;100.00;100723.16;5072344;28;20044;-62
2021/07/26 02:40:02;;;;;;;22.05;8.20;;;;;;;16.33;100.00;100728.53;5072510;28;20439;-65
2021/07/26 02:42:28;;;;;;;21.35;7.80;;;;;;;16.36;100.00;100723.13;5072885;28;20116;-62
2021/07/26 02:44:53;;;;;;;22.00;8.05;;;;;;;16.35;100.00;100732.03;5072848;28;20107;-62
2021/07/26 02:47:18;;;;;;;21.40;7.90;;;;;;;16.36;100.00;100737.34;5072380;28;20429;-61
2021/07/26 02:49:44;;;;;;;21.77;7.68;;;;;;;16.37;100.00;100720.44;5071143;28;20040;-64
2021/07/26 02:52:09;;;;;;;21.35;7.55;;;;;;;16.36;100.00;100731.13;5072526;28;20032;-62
2021/07/26 02:54:34;;;;;;;22.35;8.52;;;;;;;16.35;100.00;100735.59;5072449;28;20024;-65
2021/07/26 02:57:00;;;;;;;22.90;8.50;;;;;;;16.32;100.00;100734.78;5072385;28;20052;-65
2021/07/26 02:59:25;;;;;;;21.95;8.43;;;;;;;16.29;100.00;100735.69;5072336;28;20475;-65
2021/07/26 03:01:51;;;;;;;21.45;8.20;;;;;;;16.33;100.00;100741.88;5072491;28;20067;-65
2021/07/26 03:04:17;;;;;;;22.77;7.95;;;;;;;16.34;100.00;100747.16;5072640;28;20055;-65
2021/07/26 03:06:43;;;;;;;21.48;8.48;;;;;;;16.39;100.00;100741.72;5072522;28;20181;-65
2021/07/26 03:09:08;;;;;;;21.52;8.25;;;;;;;16.41;100.00;100742.59;5072200;28;20108;-65
2021/07/26 03:11:33;;;;;;;22.48;8.52;;;;;;;16.37;100.00;100744.44;5072482;28;20025;-65
2021/07/26 03:13:59;;;;;;;23.35;8.18;;;;;;;16.42;100.00;100744.34;5072061;28;20114;-65
2021/07/26 03:16:24;;;;;;;22.23;8.68;;;;;;;16.44;100.00;100749.63;5072348;28;20025;-65
2021/07/26 03:18:49;;;;;;;22.35;8.80;;;;;;;16.42;100.00;100755.00;5072212;28;20107;-65
2021/07/26 03:21:16;;;;;;;22.50;8.60;;;;;;;16.43;100.00;100748.75;5073133;28;20020;-65
2021/07/26 03:23:42;;;;;;;21.67;8.60;;;;;;;16.46;100.00;100750.50;5076086;28;20028;-65
2021/07/26 03:26:07;;;;;;;21.05;8.52;;;;;;;16.43;100.00;100754.09;5075810;28;20028;-67
2021/07/26 03:28:33;;;;;;;21.40;8.15;;;;;;;16.39;100.00;100755.94;5075840;28;20029;-66
2021/07/26 03:30:59;;;;;;;21.73;8.48;;;;;;;16.37;100.00;100754.25;5075930;28;20469;-67
2021/07/26 03:33:25;;;;;;;22.15;8.48;;;;;;;16.32;100.00;100754.31;5075816;28;20066;-66
2021/07/26 03:35:50;;;;;;;22.10;8.18;;;;;;;16.35;100.00;100758.72;5075821;28;20108;-65
2021/07/26 03:38:19;;;;;;;23.13;8.60;;;;;;;16.33;100.00;100760.53;5075754;28;20078;-65
2021/07/26 03:40:46;;;;;;;21.67;8.60;;;;;;;16.33;100.00;100763.22;5075593;28;20024;-67
2021/07/26 03:43:12;;;;;;;23.25;8.93;;;;;;;16.30;100.00;100764.13;5075794;28;20070;-65
2021/07/26 03:45:37;;;;;;;22.42;8.48;;;;;;;16.30;100.00;100769.47;5075730;28;20032;-66
2021/07/26 03:48:02;;;;;;;22.33;8.48;;;;;;;16.27;100.00;100766.88;5075752;28;20534;-65
2021/07/26 03:50:28;;;;;;;22.23;8.90;;;;;;;16.24;100.00;100760.72;5075551;28;20093;-65
2021/07/26 03:52:55;;;;;;;22.60;8.90;;;;;;;16.22;100.00;100763.41;5074281;28;20040;-64
2021/07/26 03:55:25;;;;;;;24.30;8.77;;;;;;;16.17;100.00;100766.19;5075045;28;20025;-65
2021/07/26 03:57:52;;;;;;;21.55;8.77;;;;;;;16.19;100.00;100771.47;5071867;28;20021;-64
2021/07/26 04:00:19;;;;;;;22.83;8.65;;;;;;;16.22;100.00;100776.75;5075389;28;20553;-65
2021/07/26 04:03:03;;;;;;;22.85;8.70;;;;;;;16.28;100.00;100770.41;5075217;28;20044;-65
2021/07/26 04:05:34;;;;;;;22.92;8.80;;;;;;;16.27;100.00;100772.22;5072524;28;20070;-64
2021/07/26 04:08:07;;;;;;;22.17;8.80;;;;;;;16.21;100.00;100770.53;5075313;28;20040;-65
2021/07/26 04:10:34;;;;;;;22.70;8.80;;;;;;;16.22;100.00;100784.75;5075115;28;20028;-66
2021/07/26 04:13:00;;;;;;;24.20;8.48;;;;;;;16.22;100.00;100782.06;5075172;28;20024;-65
2021/07/26 04:15:25;;;;;;;22.90;8.50;;;;;;;16.21;100.00;100777.69;5074915;28;20036;-64
2021/07/26 04:17:50;;;;;;;22.10;8.70;;;;;;;16.23;100.00;100778.50;5075184;28;20025;-65
2021/07/26 04:20:16;;;;;;;24.00;9.15;;;;;;;16.20;100.00;100773.25;5075134;28;20024;-65
2021/07/26 04:22:41;;;;;;;22.92;9.00;;;;;;;16.20;100.00;100775.91;5074721;28;20020;-61
2021/07/26 04:25:07;;;;;;;22.40;8.68;;;;;;;16.20;100.00;100778.56;5075059;28;20385;-61
2021/07/26 04:27:35;;;;;;;21.58;8.68;;;;;;;16.20;100.00;100786.56;5074695;28;20375;-62
2021/07/26 04:30:01;;;;;;;23.05;8.77;;;;;;;16.22;100.00;100790.06;5074661;28;20064;-62
2021/07/26 04:32:26;;;;;;;22.27;8.77;;;;;;;16.21;100.00;100786.53;5074681;28;20514;-62
2021/07/26 04:34:52;;;;;;;24.92;8.90;;;;;;;16.24;100.00;100787.38;5074752;28;20067;-61
2021/07/26 04:37:17;;;;;;;22.00;8.40;;;;;;;16.23;100.00;100788.31;5074443;28;20056;-62
2021/07/26 04:39:42;;;;;;;23.02;8.70;;;;;;;16.22;100.00;100779.41;5074680;28;20021;-62
2021/07/26 04:42:08;;;;;;;23.08;8.70;;;;;;;16.23;100.00;100789.19;5074529;28;20208;-65
2021/07/26 04:44:36;;;;;;;22.92;8.65;;;;;;;16.25;100.00;100791.81;5074380;28;20155;-64
2021/07/26 04:47:01;;;;;;;22.52;9.25;;;;;;;16.28;100.00;100786.41;5074786;28;20031;-64
2021/07/26 04:49:27;;;;;;;24.02;8.90;;;;;;;16.35;100.00;100799.63;5074179;28;20032;-64
2021/07/26 04:51:52;;;;;;;23.00;8.60;;;;;;;16.42;100.00;100796.81;5074601;28;20024;-64
2021/07/26 04:54:17;;;;;;;21.58;8.48;;;;;;;16.45;100.00;100796.75;5074424;28;20514;-64
2021/07/26 04:56:43;;;;;;;22.75;8.05;;;;;;;16.46;100.00;100806.53;5074155;28;20376;-63
2021/07/26 04:59:08;;;;;;;23.65;8.63;;;;;;;16.43;100.00;100801.25;5074270;28;20025;-65
2021/07/26 05:01:33;;;;;;;22.67;8.80;;;;;;;16.44;100.00;100802.97;5074100;28;20115;-64
2021/07/26 05:03:58;;;;;;;21.48;8.68;;;;;;;16.45;100.00;100796.75;5073936;28;20021;-62
2021/07/26 05:06:24;;;;;;;22.88;8.70;;;;;;;16.47;100.00;100797.59;5073318;28;20074;-64
2021/07/26 05:08:49;;;;;;;22.52;8.57;;;;;;;16.49;100.00;100803.78;5073789;28;20060;-63
2021/07/26 05:11:21;;;;;;;24.38;9.00;;;;;;;16.52;100.00;100798.38;5073901;28;20042;-65
2021/07/26 05:13:46;;;;;;;23.15;8.68;;;;;;;16.53;100.00;100797.47;5074138;28;20430;-65
2021/07/26 05:16:11;;;;;;;23.48;8.88;;;;;;;16.54;100.00;100796.53;5073672;28;20025;-65
2021/07/26 05:18:37;;;;;;;22.90;8.65;;;;;;;16.58;100.00;100789.38;5073971;28;20086;-65
2021/07/26 05:21:02;;;;;;;21.35;8.55;;;;;;;16.63;100.00;100799.03;5073835;28;20104;-65
2021/07/26 05:23:27;;;;;;;22.90;8.80;;;;;;;16.69;100.00;100801.56;5073782;28;20482;-65
2021/07/26 05:25:53;;;;;;;23.50;9.10;;;;;;;16.67;100.00;100795.41;5073750;28;20026;-66
2021/07/26 05:28:18;;;;;;;22.73;9.23;;;;;;;16.72;100.00;100795.28;5073563;28;20475;-64
2021/07/26 05:30:43;;;;;;;22.42;9.18;;;;;;;16.74;100.00;100801.47;5078254;28;20103;-65
2021/07/26 05:33:09;;;;;;;21.95;9.55;;;;;;;16.77;100.00;100800.53;5077082;28;20479;-65
2021/07/26 05:35:34;;;;;;;22.80;8.93;;;;;;;16.79;100.00;100802.25;5076761;28;20103;-64
2021/07/26 05:38:03;;;;;;;23.38;9.43;;;;;;;16.83;100.00;100795.91;5078544;28;20430;-64
2021/07/26 05:40:29;;;;;;;22.58;8.95;;;;;;;16.85;100.00;100798.56;5075605;28;20020;-64
2021/07/26 05:42:54;;;;;;;24.60;9.65;;;;;;;16.90;100.00;100805.56;5076687;28;20025;-63
2021/07/26 05:45:19;;;;;;;24.83;9.82;;;;;;;16.93;100.00;100801.97;5077231;28;20024;-64
2021/07/26 05:47:49;;;;;;;22.90;9.20;;;;;;;17.01;100.00;100799.13;5079046;28;20484;-65
2021/07/26 05:50:15;;;;;;;23.90;10.05;;;;;;;17.08;100.00;100798.94;5076579;28;20024;-66
2021/07/26 05:52:40;;;;;;;24.38;9.60;;;;;;;17.15;100.00;100807.69;5079794;28;20360;-63
2021/07/26 05:55:06;;;;;;;23.48;9.00;;;;;;;17.20;100.00;100805.78;5077845;28;20027;-64
2021/07/26 05:57:35;;;;;;;24.10;9.32;;;;;;;17.24;100.00;100809.25;5079706;28;20498;-64
2021/07/26 06:00:07;;;;;;;23.95;9.95;;;;;;;17.29;100.00;100807.38;5070762;28;20464;-63
2021/07/26 06:02:33;;;;;;;24.42;10.02;;;;;;;17.34;100.00;100805.44;5076388;28;20034;-64
2021/07/26 06:04:58;;;;;;;24.70;9.95;;;;;;;17.40;100.00;100813.34;5074366;28;20380;-64
2021/07/26 06:07:23;;;;;;;24.13;9.90;;;;;;;17.37;100.00;100807.16;5073486;28;20032;-64
2021/07/26 06:09:49;;;;;;;26.23;11.77;;;;;;;17.36;100.00;100817.00;5077265;28;20059;-65
2021/07/26 06:12:14;;;;;;;26.17;11.00;;;;;;;17.37;100.00;100801.81;5078093;28;20376;-64
2021/07/26 06:14:39;;;;;;;28.20;11.82;;;;;;;17.39;100.00;100805.34;5077983;28;20028;-65
2021/07/26 06:17:05;;;;;;;26.23;11.88;;;;;;;17.38;100.00;100801.78;5077442;28;20524;-65
2021/07/26 06:19:30;;;;;;;28.92;12.25;;;;;;;17.41;100.00;100804.38;5074774;28;20028;-65
2021/07/26 06:21:56;;;;;;;26.65;11.75;;;;;;;17.43;100.00;100793.69;5073628;28;20035;-64
2021/07/26 06:24:22;;;;;;;25.98;10.95;;;;;;;17.52;100.00;100813.94;5076399;28;20404;-64
2021/07/26 06:26:48;;;;;;;25.05;11.55;;;;;;;17.55;99.27;100813.88;5074475;28;20387;-64
2021/07/26 06:29:14;;;;;;;26.48;11.55;;;;;;;17.59;99.03;100810.19;5077670;28;20481;-63
2021/07/26 06:31:42;;;;;;;24.75;11.55;;;;;;;17.60;99.27;100799.47;5077895;28;20048;-65
2021/07/26 06:34:08;;;;;;;26.85;11.95;;;;;;;17.73;99.31;100807.16;5073315;28;20529;-62
2021/07/26 06:36:35;;;;;;;25.45;11.63;;;;;;;17.81;98.59;100806.97;5077461;28;20020;-64
2021/07/26 06:39:00;;;;;;;25.05;12.52;;;;;;;17.89;97.29;100802.28;5076458;28;20021;-63
2021/07/26 06:41:26;;;;;;;26.85;12.68;;;;;;;18.01;95.51;100799.31;5075854;28;20033;-64
2021/07/26 06:43:52;;;;;;;25.30;12.70;;;;;;;18.17;95.36;100799.75;5074421;28;20024;-63
2021/07/26 06:46:18;;;;;;;25.27;11.77;;;;;;;18.42;93.62;100804.41;5073714;28;20031;-64
2021/07/26 06:48:43;;;;;;;25.58;11.90;;;;;;;18.52;90.25;100810.38;5076294;28;20025;-64
2021/07/26 06:51:09;;;;;;;27.33;12.20;;;;;;;18.54;90.77;100812.09;5072255;28;20383;-63
2021/07/26 06:53:34;;;;;;;24.92;11.48;;;;;;;18.64;89.55;100815.41;5073564;28;20028;-63
2021/07/26 06:56:07;;;;;;;24.58;11.63;;;;;;;18.59;89.37;100817.31;5072057;28;20471;-63
2021/07/26 06:58:34;;;;;;;24.42;11.77;;;;;;;18.54;89.24;100813.91;5078919;28;20386;-65
2021/07/26 07:01:03;;;;;;;25.08;11.35;;;;;;;18.43;89.25;100811.53;5082066;28;20024;-65
2021/07/26 07:03:29;;;;;;;24.23;11.48;;;;;;;18.38;89.22;100810.81;5076883;28;20226;-65
2021/07/26 07:06:00;;;;;;;25.88;12.07;;;;;;;18.28;91.13;100807.50;5083044;28;20510;-65
2021/07/26 07:08:26;;;;;;;25.70;11.30;;;;;;;18.24;90.13;100816.53;5079363;28;20028;-65
2021/07/26 07:11:01;;;;;;;24.02;11.30;;;;;;;18.21;90.78;100806.78;5081359;28;20277;-64
2021/07/26 07:13:27;;;;;;;23.35;10.35;;;;;;;18.27;90.43;100816.44;5079481;28;20025;-64
2021/07/26 07:15:52;;;;;;;26.63;10.82;;;;;;;18.34;90.45;100822.50;5078890;28;20111;-62
2021/07/26 07:18:17;;;;;;;24.80;10.73;;;;;;;18.52;90.21;100815.75;5081281;28;20021;-62
2021/07/26 07:20:42;;;;;;;24.52;9.82;;;;;;;18.73;88.40;100824.97;5079321;28;20365;-62
2021/07/26 07:23:08;;;;;;;23.58;9.50;;;;;;;18.91;86.80;100829.75;5075585;28;20029;-62
2021/07/26 07:25:35;;;;;;;22.90;9.40;;;;;;;18.97;85.18;100818.88;5075702;28;20051;-61
2021/07/26 07:28:01;;;;;;;23.13;9.82;;;;;;;19.09;83.17;100833.69;5075556;28;20471;-62
2021/07/26 07:30:26;;;;;;;22.40;9.77;;;;;;;19.16;82.98;100834.38;5076102;28;20064;-61
2021/07/26 07:32:51;;;;;;;22.83;9.60;;;;;;;19.20;82.40;100827.13;5075639;28;20028;-61
2021/07/26 07:35:17;;;;;;;22.80;10.07;;;;;;;19.33;81.61;100836.50;5075469;28;20103;-62
2021/07/26 07:37:42;;;;;;;22.40;10.18;;;;;;;19.38;81.78;100834.53;5075767;28;20046;-65
2021/07/26 07:40:08;;;;;;;22.00;10.02;;;;;;;19.48;81.10;100828.00;5075787;28;20020;-65
2021/07/26 07:42:34;;;;;;;22.80;10.23;;;;;;;19.48;78.51;100830.66;5075496;28;20359;-65
2021/07/26 07:44:59;;;;;;;25.63;11.48;;;;;;;19.57;79.51;100834.84;5075657;28;20024;-64
2021/07/26 07:47:24;;;;;;;23.08;11.93;;;;;;;19.67;78.45;100830.03;5074162;28;20048;-65
2021/07/26 07:49:50;;;;;;;24.10;12.30;;;;;;;19.56;78.93;100835.75;5075507;28;20035;-65
2021/07/26 07:52:15;;;;;;;23.60;12.57;;;;;;;19.56;79.65;100832.22;5075608;28;20365;-65
2021/07/26 07:54:40;;;;;;;23.33;11.73;;;;;;;19.73;79.15;100831.63;5075514;28;20581;-65
2021/07/26 07:57:06;;;;;;;22.50;12.07;;;;;;;19.79;77.79;100829.66;5075164;28;20052;-65
2021/07/26 07:59:31;;;;;;;23.38;11.00;;;;;;;19.78;77.77;100837.72;5075616;28;20021;-67
2021/07/26 08:01:57;;;;;;;22.75;10.63;;;;;;;19.84;77.88;100837.53;5075578;28;20025;-65
2021/07/26 08:04:22;;;;;;;22.52;10.45;;;;;;;19.95;76.64;100839.84;5075170;28;20055;-64
2021/07/26 08:06:47;;;;;;;22.45;9.98;;;;;;;20.03;76.47;100835.97;5074680;28;20095;-65
2021/07/26 08:09:12;;;;;;;20.77;9.68;;;;;;;20.15;74.39;100842.72;5074921;28;20032;-64
2021/07/26 08:11:38;;;;;;;21.92;10.02;;;;;;;20.41;74.49;100843.56;5075385;28;20028;-62
2021/07/26 08:14:03;;;;;;;21.75;9.65;;;;;;;20.58;72.49;100852.84;5075022;28;20020;-62
2021/07/26 08:16:29;;;;;;;23.15;9.93;;;;;;;20.55;72.53;100848.44;5074821;28;20107;-63
2021/07/26 08:18:57;;;;;;;20.77;9.98;;;;;;;20.46;72.73;100849.66;5067981;28;20103;-62
2021/07/26 08:21:22;;;;;;;22.98;10.48;;;;;;;20.42;73.51;100853.38;5074869;28;20021;-62
2021/07/26 08:23:47;;;;;;;21.30;9.95;;;;;;;20.38;72.24;100849.06;5074698;28;20031;-62
2021/07/26 08:26:13;;;;;;;21.27;8.73;;;;;;;20.43;72.24;100855.16;5075076;28;20016;-62
2021/07/26 08:28:38;;;;;;;21.17;9.02;;;;;;;20.42;71.41;100842.66;5074628;28;20032;-63
2021/07/26 08:31:04;;;;;;;19.63;8.77;;;;;;;20.49;70.53;100852.22;5074713;28;20025;-61
2021/07/26 08:33:29;;;;;;;21.13;9.20;;;;;;;20.53;70.37;100855.66;5074889;28;20464;-61
2021/07/26 08:35:57;;;;;;;20.38;8.88;;;;;;;20.45;71.01;100855.09;5074584;28;20032;-62
2021/07/26 08:38:22;;;;;;;19.73;9.07;;;;;;;20.32;70.77;100854.66;5074737;28;20027;-61
2021/07/26 08:40:47;;;;;;;20.55;9.57;;;;;;;20.20;71.23;100851.47;5074735;28;20115;-61
2021/07/26 08:43:14;;;;;;;21.13;10.18;;;;;;;20.14;71.96;100851.69;5069819;28;20035;-62
2021/07/26 08:45:39;;;;;;;21.33;10.20;;;;;;;20.03;71.81;100849.38;5068462;28;20050;-65
2021/07/26 08:48:10;;;;;;;20.85;9.82;;;;;;;20.04;72.09;100852.97;5074631;28;20021;-65
2021/07/26 08:50:37;;;;;;;21.30;10.05;;;;;;;20.19;72.98;100854.22;5071475;28;20032;-65
2021/07/26 08:53:06;;;;;;;20.08;9.23;;;;;;;20.39;71.28;100861.56;5072723;28;20094;-64
2021/07/26 08:55:32;;;;;;;20.45;9.15;;;;;;;20.57;71.28;100848.38;5073825;28;20032;-64
2021/07/26 08:57:58;;;;;;;21.33;9.20;;;;;;;20.92;69.56;100865.00;5070027;28;20032;-65
2021/07/26 09:00:24;;;;;;;20.85;9.65;;;;;;;21.23;68.04;100854.81;5073732;28;20025;-64
2021/07/26 09:02:53;;;;;;;21.45;9.32;;;;;;;21.21;68.15;100867.41;5074146;28;20028;-65
2021/07/26 09:05:19;;;;;;;21.00;9.25;;;;;;;21.16;68.86;100868.53;5074075;28;20028;-64
2021/07/26 09:07:48;;;;;;;21.00;9.20;;;;;;;21.24;69.94;100864.59;5073935;28;20028;-65
2021/07/26 09:10:17;;;;;;;20.35;9.25;;;;;;;21.32;67.51;100858.03;5074144;28;20107;-64
2021/07/26 09:12:45;;;;;;;22.65;9.70;;;;;;;21.16;68.34;100864.06;5073818;28;20024;-65
2021/07/26 09:15:28;;;;;;;20.08;8.32;;;;;;;20.87;69.69;100863.38;5074013;28;20081;-65
2021/07/26 09:17:54;;;;;;;19.33;7.75;;;;;;;20.89;69.14;100866.84;5069807;28;20433;-64
2021/07/26 09:20:20;;;;;;;18.70;7.78;;;;;;;21.07;68.32;100864.41;5067913;28;20110;-65
2021/07/26 09:22:47;;;;;;;19.65;7.47;;;;;;;21.79;68.65;100863.31;5069168;28;20032;-62
2021/07/26 09:25:29;;;;;;;18.90;6.85;;;;;;;22.51;65.27;100862.00;5069107;28;20024;-64
2021/07/26 09:27:54;;;;;;;;;;;;;;;22.75;63.05;100854.63;5065155;28;20029;-61
2021/07/26 09:30:20;;;;;;;19.37;6.43;;;;;;;22.87;62.70;100855.88;5068486;28;19913;-61
2021/07/26 09:32:45;;;;;;;19.42;6.65;;;;;;;22.77;61.83;100860.81;5068729;28;20021;-62
2021/07/26 09:35:11;;;;;;;18.90;6.45;;;;;;;22.61;62.91;100855.25;5068207;28;20047;-61
2021/07/26 09:37:39;;;;;;;19.85;7.90;;;;;;;22.66;62.84;100864.94;5068747;28;20078;-65
2021/07/26 09:40:21;;;;;;;19.70;7.10;;;;;;;22.78;62.68;100864.41;5068906;28;20037;-64
2021/07/26 09:42:47;;;;;;;;;;;;;;;22.60;62.57;100861.59;5071112;28;20033;-63
2021/07/26 09:45:25;;;;;;;20.33;7.20;;;;;;;21.99;64.18;100864.28;5071660;28;19964;-62
2021/07/26 09:48:06;;;;;;;21.83;7.45;;;;;;;21.70;64.26;100875.34;5075702;28;20032;-62
2021/07/26 09:50:40;;;;;;;21.27;7.80;;;;;;;20.99;73.27;100872.75;5077069;28;20389;-64
2021/07/26 09:53:11;;;;;;;23.92;9.20;;;;;;;19.62;90.44;100870.41;5075578;28;20460;-62
2021/07/26 09:55:38;;;;;;;24.08;9.93;;;;;;;19.07;97.03;100878.38;5075754;28;20051;-65
2021/07/26 09:58:05;;;;;;;24.45;11.60;;;;;;;18.78;100.00;100868.53;5074126;28;20025;-66
2021/07/26 10:00:32;;;;;;;26.88;12.43;;;;;;;18.57;100.00;100873.56;5078034;28;20082;-64
2021/07/26 10:02:57;;;;;;;25.45;11.75;;;;;;;18.44;100.00;100869.50;5078058;28;20036;-64
2021/07/26 10:05:29;;;;;;;26.35;12.07;;;;;;;18.35;100.00;100870.63;5079047;28;20082;-64
2021/07/26 10:07:55;;;;;;;25.67;11.68;;;;;;;18.27;100.00;100876.16;5071513;28;20373;-64
2021/07/26 10:10:23;;;;;;;26.25;12.18;;;;;;;18.23;100.00;100879.88;5075588;28;20114;-64
2021/07/26 10:12:51;;;;;;;27.08;11.70;;;;;;;18.08;100.00;100886.47;5069430;28;20470;-64
2021/07/26 10:15:17;;;;;;;27.65;12.27;;;;;;;17.91;100.00;100886.03;5075855;28;20470;-64
2021/07/26 10:17:44;;;;;;;29.40;13.23;;;;;;;17.80;100.00;100885.44;5079593;28;20016;-62
2021/07/26 10:20:10;;;;;;;42.05;16.23;;;;;;;17.76;100.00;100889.94;5076158;28;20020;-65
2021/07/26 10:22:36;;;;;;;39.10;18.95;;;;;;;17.97;100.00;100885.91;5078509;28;20156;-64
2021/07/26 10:25:18;;;;;;;35.97;16.80;;;;;;;18.12;100.00;100880.13;5076462;28;20481;-63
2021/07/26 10:27:45;;;;;;;37.90;17.27;;;;;;;18.50;100.00;100877.34;5075606;28;20478;-64
2021/07/26 10:30:30;;;;;;;34.47;16.17;;;;;;;18.84;100.00;100876.38;5071772;28;20033;-64
2021/07/26 10:33:01;;;;;;;30.65;15.68;;;;;;;18.92;100.00;100878.88;5066681;28;20017;-66
2021/07/26 10:35:38;;;;;;;29.70;13.98;;;;;;;18.97;100.00;100880.50;5073569;28;20021;-65
2021/07/26 10:38:06;;;;;;;29.02;13.32;;;;;;;18.78;100.00;100881.91;5078740;28;20478;-65
2021/07/26 10:40:36;;;;;;;27.65;12.48;;;;;;;18.67;100.00;100878.66;5075825;28;20550;-66
2021/07/26 10:43:02;;;;;;;25.48;11.68;;;;;;;18.83;100.00;100885.34;5079855;28;20032;-66
2021/07/26 10:45:33;;;;;;;24.20;10.07;;;;;;;19.04;100.00;100889.19;5074936;28;20074;-63
2021/07/26 10:48:20;;;;;;;23.90;9.80;;;;;;;19.41;100.00;100885.41;5077332;28;20140;-64
2021/07/26 10:50:50;;;;;;;21.85;8.00;;;;;;;20.84;88.61;100889.50;5076232;28;20047;-66
2021/07/26 10:53:34;;;;;;;22.35;9.13;;;;;;;22.39;92.65;100886.81;5077338;28;20048;-67
2021/07/26 10:56:07;;;;;;;20.88;7.70;;;;;;;23.96;72.43;100878.53;5074536;28;20104;-65
2021/07/26 10:58:38;;;;;;;19.05;6.55;;;;;;;24.94;64.80;100890.50;5076223;28;20028;-66
2021/07/26 11:01:30;;;;;;;20.53;7.20;;;;;;;23.31;68.40;100882.59;5075219;28;20528;-67
2021/07/26 11:03:57;;;;;;;20.40;7.95;;;;;;;22.43;67.96;100885.72;5069376;28;20482;-65
2021/07/26 11:06:34;;;;;;;20.52;7.65;;;;;;;21.93;72.64;100886.94;5075211;28;20024;-64
2021/07/26 11:09:18;;;;;;;21.70;7.50;;;;;;;22.01;72.61;100890.19;5073200;28;20364;-65
2021/07/26 11:11:44;;;;;;;21.48;7.95;;;;;;;22.82;67.55;100884.88;5077251;28;20064;-66
2021/07/26 11:14:12;;;;;;;20.33;7.93;;;;;;;23.54;66.00;100887.78;5074112;28;20039;-66